PWSweather.com
Personal Weather Stations
Station Observations
KAZSIERR7
Canyon De Flores, Sierra Vista, AZ 85650

Canyon De FloresSierra Vista, AZ 85650

Lat: 31.5, Lon: -110.26

Elevation: 4645

Station Type: LaCrosse WS-3610 & Boltek Lightning Detector

http://www.lightningring.com/weather/

High Low Average
Temperature 80.9°F27.2°C 42.7°F5.9°C 61.5°F16.4°C
Dew Point 27.6°F-2.4°C 11.2°F-11.6°C 20.0°F-6.7°C
Winds 11.9 mph 19.2 kmh Calm Calm 3.0 mph SSW4.8 kmh SSW
Wind Gusts 65.6 mph105.6 kmh -- 20.0 mph32.2 kmh
Humidity 48% 8% 25%
Pressure 30.09 in1019.0 mb 29.99 in1015.6 mb -
Precipitation 0.00 in0.0 mm - -
Hour Temp Dew Point Humidity Winds Wind Gusts Pressure Precip Precip Rate Daily Precip Total
12:06 AM 50.1°F10.1°C 24.6°F-4.1°C 37% Calm Calm -- 30.09 in1019.0 mb 0.00 in0.0 mm 0.00 in/hr0.0 mm/hr 0.00 in0.0 mm
12:17 AM 50.5°F10.3°C 24.3°F-4.3°C 36% Calm Calm -- 30.09 in1019.0 mb 0.00 in0.0 mm 0.00 in/hr0.0 mm/hr 0.00 in0.0 mm
12:27 AM 50.7°F10.4°C 23.8°F-4.6°C 35% Calm Calm -- 30.09 in1019.0 mb 0.00 in0.0 mm 0.00 in/hr0.0 mm/hr 0.00 in0.0 mm
12:37 AM 50.5°F10.3°C 23.6°F-4.7°C 35% Calm Calm -- 30.09 in1019.0 mb 0.00 in0.0 mm 0.00 in/hr0.0 mm/hr 0.00 in0.0 mm
12:48 AM 49.9°F9.9°C 23.1°F-4.9°C 35% Calm Calm -- 30.08 in1018.6 mb 0.00 in0.0 mm 0.00 in/hr0.0 mm/hr 0.00 in0.0 mm
12:58 AM 49.9°F9.9°C 23.8°F-4.6°C 36% Calm Calm -- 30.08 in1018.6 mb 0.00 in0.0 mm 0.00 in/hr0.0 mm/hr 0.00 in0.0 mm
01:09 AM 49.6°F9.8°C 24.8°F-4.0°C 38% Calm Calm -- 30.08 in1018.6 mb 0.00 in0.0 mm 0.00 in/hr0.0 mm/hr 0.00 in0.0 mm
01:19 AM 49.2°F9.6°C 23.8°F-4.6°C 37% Calm Calm -- 30.08 in1018.6 mb 0.00 in0.0 mm 0.00 in/hr0.0 mm/hr 0.00 in0.0 mm
01:30 AM 49.0°F9.4°C 23.6°F-4.7°C 37% Calm Calm -- 30.08 in1018.6 mb 0.00 in0.0 mm 0.00 in/hr0.0 mm/hr 0.00 in0.0 mm
01:40 AM 48.5°F9.2°C 23.8°F-4.6°C 38% Calm Calm -- 30.08 in1018.6 mb 0.00 in0.0 mm 0.00 in/hr0.0 mm/hr 0.00 in0.0 mm
01:51 AM 48.7°F9.3°C 23.4°F-4.8°C 37% Calm Calm -- 30.07 in1018.3 mb 0.00 in0.0 mm 0.00 in/hr0.0 mm/hr 0.00 in0.0 mm
02:01 AM 48.7°F9.3°C 23.4°F-4.8°C 37% Calm Calm -- 30.07 in1018.3 mb 0.00 in0.0 mm 0.00 in/hr0.0 mm/hr 0.00 in0.0 mm
02:12 AM 48.3°F9.1°C 23.6°F-4.7°C 38% Calm Calm -- 30.07 in1018.3 mb 0.00 in0.0 mm 0.00 in/hr0.0 mm/hr 0.00 in0.0 mm
02:22 AM 47.8°F8.8°C 23.8°F-4.6°C 39% Calm Calm -- 30.07 in1018.3 mb 0.00 in0.0 mm 0.00 in/hr0.0 mm/hr 0.00 in0.0 mm
02:33 AM 48.1°F8.9°C 24.1°F-4.4°C 39% Calm Calm -- 30.07 in1018.3 mb 0.00 in0.0 mm 0.00 in/hr0.0 mm/hr 0.00 in0.0 mm
02:43 AM 48.1°F8.9°C 24.1°F-4.4°C 39% Calm Calm 0.8 mph1.3 kmh 30.06 in1017.9 mb 0.00 in0.0 mm 0.00 in/hr0.0 mm/hr 0.00 in0.0 mm
02:54 AM 48.0°F8.9°C 24.6°F-4.1°C 40% Calm Calm -- 30.06 in1017.9 mb 0.00 in0.0 mm 0.00 in/hr0.0 mm/hr 0.00 in0.0 mm
03:04 AM 47.8°F8.8°C 24.4°F-4.2°C 40% Calm Calm -- 30.06 in1017.9 mb 0.00 in0.0 mm 0.00 in/hr0.0 mm/hr 0.00 in0.0 mm
03:15 AM 47.6°F8.7°C 24.3°F-4.3°C 40% Calm Calm -- 30.06 in1017.9 mb 0.00 in0.0 mm 0.00 in/hr0.0 mm/hr 0.00 in0.0 mm
03:25 AM 48.0°F8.9°C 24.6°F-4.1°C 40% Calm Calm -- 30.06 in1017.9 mb 0.00 in0.0 mm 0.00 in/hr0.0 mm/hr 0.00 in0.0 mm
03:36 AM 48.1°F8.9°C 24.7°F-4.1°C 40% 1.9 mph WNW3.1 kmh WNW 2.6 mph4.2 kmh 30.06 in1017.9 mb 0.00 in0.0 mm 0.00 in/hr0.0 mm/hr 0.00 in0.0 mm
03:46 AM 47.4°F8.6°C 24.7°F-4.1°C 41% Calm Calm 2.6 mph4.2 kmh 30.06 in1017.9 mb 0.00 in0.0 mm 0.00 in/hr0.0 mm/hr 0.00 in0.0 mm
03:57 AM 46.9°F8.3°C 24.8°F-4.0°C 42% Calm Calm -- 30.06 in1017.9 mb 0.00 in0.0 mm 0.00 in/hr0.0 mm/hr 0.00 in0.0 mm
04:07 AM 46.5°F8.1°C 24.5°F-4.2°C 42% Calm Calm -- 30.06 in1017.9 mb 0.00 in0.0 mm 0.00 in/hr0.0 mm/hr 0.00 in0.0 mm
04:18 AM 46.9°F8.3°C 24.8°F-4.0°C 42% Calm Calm -- 30.07 in1018.3 mb 0.00 in0.0 mm 0.00 in/hr0.0 mm/hr 0.00 in0.0 mm
04:28 AM 46.3°F7.9°C 24.9°F-3.9°C 43% Calm Calm -- 30.07 in1018.3 mb 0.00 in0.0 mm 0.00 in/hr0.0 mm/hr 0.00 in0.0 mm
04:38 AM 46.2°F7.9°C 24.2°F-4.3°C 42% Calm Calm -- 30.06 in1017.9 mb 0.00 in0.0 mm 0.00 in/hr0.0 mm/hr 0.00 in0.0 mm
04:49 AM 46.0°F7.8°C 24.6°F-4.1°C 43% Calm Calm -- 30.06 in1017.9 mb 0.00 in0.0 mm 0.00 in/hr0.0 mm/hr 0.00 in0.0 mm
04:59 AM 46.0°F7.8°C 24.0°F-4.4°C 42% Calm Calm -- 30.06 in1017.9 mb 0.00 in0.0 mm 0.00 in/hr0.0 mm/hr 0.00 in0.0 mm
05:10 AM 46.2°F7.9°C 24.2°F-4.3°C 42% Calm Calm -- 30.07 in1018.3 mb 0.00 in0.0 mm 0.00 in/hr0.0 mm/hr 0.00 in0.0 mm
05:20 AM 45.6°F7.6°C 23.7°F-4.6°C 42% Calm Calm -- 30.07 in1018.3 mb 0.00 in0.0 mm 0.00 in/hr0.0 mm/hr 0.00 in0.0 mm
05:31 AM 44.7°F7.1°C 24.0°F-4.4°C 44% Calm Calm -- 30.06 in1017.9 mb 0.00 in0.0 mm 0.00 in/hr0.0 mm/hr 0.00 in0.0 mm
05:41 AM 44.2°F6.8°C 23.5°F-4.7°C 44% Calm Calm -- 30.07 in1018.3 mb 0.00 in0.0 mm 0.00 in/hr0.0 mm/hr 0.00 in0.0 mm
05:52 AM 43.8°F6.6°C 23.7°F-4.6°C 45% Calm Calm -- 30.07 in1018.3 mb 0.00 in0.0 mm 0.00 in/hr0.0 mm/hr 0.00 in0.0 mm
06:02 AM 43.3°F6.3°C 23.8°F-4.6°C 46% Calm Calm -- 30.07 in1018.3 mb 0.00 in0.0 mm 0.00 in/hr0.0 mm/hr 0.00 in0.0 mm
06:13 AM 42.7°F5.9°C 23.8°F-4.6°C 47% Calm Calm -- 30.07 in1018.3 mb 0.00 in0.0 mm 0.00 in/hr0.0 mm/hr 0.00 in0.0 mm
06:23 AM 42.7°F5.9°C 24.3°F-4.3°C 48% Calm Calm -- 30.07 in1018.3 mb 0.00 in0.0 mm 0.00 in/hr0.0 mm/hr 0.00 in0.0 mm
06:34 AM 43.3°F6.3°C 23.8°F-4.6°C 46% Calm Calm -- 30.07 in1018.3 mb 0.00 in0.0 mm 0.00 in/hr0.0 mm/hr 0.00 in0.0 mm
06:44 AM 44.9°F7.2°C 24.2°F-4.3°C 44% Calm Calm -- 30.07 in1018.3 mb 0.00 in0.0 mm 0.00 in/hr0.0 mm/hr 0.00 in0.0 mm
06:55 AM 49.9°F9.9°C 25.7°F-3.5°C 39% Calm Calm -- 30.07 in1018.3 mb 0.00 in0.0 mm 0.00 in/hr0.0 mm/hr 0.00 in0.0 mm
07:05 AM 55.2°F12.9°C 26.4°F-3.1°C 33% Calm Calm -- 30.08 in1018.6 mb 0.00 in0.0 mm 0.00 in/hr0.0 mm/hr 0.00 in0.0 mm
07:16 AM 59.0°F15.0°C 27.4°F-2.6°C 30% Calm Calm -- 30.09 in1019.0 mb 0.00 in0.0 mm 0.00 in/hr0.0 mm/hr 0.00 in0.0 mm
07:26 AM 63.1°F17.3°C 27.5°F-2.5°C 26% Calm Calm -- 30.08 in1018.6 mb 0.00 in0.0 mm 0.00 in/hr0.0 mm/hr 0.00 in0.0 mm
07:37 AM 65.5°F18.6°C 27.6°F-2.4°C 24% Calm Calm -- 30.09 in1019.0 mb 0.00 in0.0 mm 0.00 in/hr0.0 mm/hr 0.00 in0.0 mm
07:47 AM 70.4°F21.3°C 24.8°F-4.0°C 18% Calm Calm -- 30.08 in1018.6 mb 0.00 in0.0 mm 0.00 in/hr0.0 mm/hr 0.00 in0.0 mm
07:58 AM 64.6°F18.1°C 22.5°F-5.3°C 20% Calm Calm 0.4 mph0.6 kmh 30.09 in1019.0 mb 0.00 in0.0 mm 0.00 in/hr0.0 mm/hr 0.00 in0.0 mm
08:08 AM 65.7°F18.7°C 22.3°F-5.4°C 19% 0.9 mph ESE1.4 kmh ESE 1.2 mph1.9 kmh 30.08 in1018.6 mb 0.00 in0.0 mm 0.00 in/hr0.0 mm/hr 0.00 in0.0 mm
08:19 AM 65.3°F18.5°C 22.0°F-5.6°C 19% 2.4 mph SE3.9 kmh SE 4.4 mph7.1 kmh 30.08 in1018.6 mb 0.00 in0.0 mm 0.00 in/hr0.0 mm/hr 0.00 in0.0 mm
08:29 AM 65.4°F18.6°C 22.0°F-5.6°C 19% 2.3 mph SE3.7 kmh SE 5.2 mph8.4 kmh 30.08 in1018.6 mb 0.00 in0.0 mm 0.00 in/hr0.0 mm/hr 0.00 in0.0 mm
08:40 AM 65.3°F18.5°C 21.9°F-5.6°C 19% 4.6 mph SE7.4 kmh SE 43.2 mph69.5 kmh 30.09 in1019.0 mb 0.00 in0.0 mm 0.00 in/hr0.0 mm/hr 0.00 in0.0 mm
08:50 AM 64.4°F18.0°C 21.2°F-6.0°C 19% 6.6 mph SE10.6 kmh SE 39.8 mph64.1 kmh 30.09 in1019.0 mb 0.00 in0.0 mm 0.00 in/hr0.0 mm/hr 0.00 in0.0 mm
09:01 AM 65.0°F18.3°C 21.7°F-5.7°C 19% 4.9 mph SE7.9 kmh SE 8.8 mph14.2 kmh 30.09 in1019.0 mb 0.00 in0.0 mm 0.00 in/hr0.0 mm/hr 0.00 in0.0 mm
09:11 AM 65.4°F18.6°C 20.7°F-6.3°C 18% 4.9 mph E7.9 kmh E 47.4 mph76.3 kmh 30.09 in1019.0 mb 0.00 in0.0 mm 0.00 in/hr0.0 mm/hr 0.00 in0.0 mm
09:22 AM 65.3°F18.5°C 20.6°F-6.3°C 18% 11.9 mph SE19.2 kmh SE 42.0 mph67.6 kmh 30.08 in1018.6 mb 0.00 in0.0 mm 0.00 in/hr0.0 mm/hr 0.00 in0.0 mm
09:32 AM 66.0°F18.9°C 21.2°F-6.0°C 18% 10.0 mph SE16.1 kmh SE 51.0 mph82.1 kmh 30.09 in1019.0 mb 0.00 in0.0 mm 0.00 in/hr0.0 mm/hr 0.00 in0.0 mm
09:43 AM 66.2°F19.0°C 20.0°F-6.7°C 17% 9.0 mph SSE14.5 kmh SSE 59.0 mph95.0 kmh 30.09 in1019.0 mb 0.00 in0.0 mm 0.00 in/hr0.0 mm/hr 0.00 in0.0 mm
09:53 AM 67.6°F19.8°C 21.1°F-6.1°C 17% 2.3 mph SSE3.7 kmh SSE 65.6 mph105.6 kmh 30.09 in1019.0 mb 0.00 in0.0 mm 0.00 in/hr0.0 mm/hr 0.00 in0.0 mm
10:04 AM 67.9°F19.9°C 20.0°F-6.7°C 16% 5.8 mph E9.3 kmh E 55.4 mph89.2 kmh 30.08 in1018.6 mb 0.00 in0.0 mm 0.00 in/hr0.0 mm/hr 0.00 in0.0 mm
10:14 AM 70.9°F21.6°C 19.2°F-7.1°C 14% 6.0 mph SE9.7 kmh SE 20.4 mph32.8 kmh 30.09 in1019.0 mb 0.00 in0.0 mm 0.00 in/hr0.0 mm/hr 0.00 in0.0 mm
10:25 AM 70.2°F21.2°C 18.6°F-7.4°C 14% 3.2 mph SSE5.1 kmh SSE 7.6 mph12.2 kmh 30.08 in1018.6 mb 0.00 in0.0 mm 0.00 in/hr0.0 mm/hr 0.00 in0.0 mm
10:35 AM 69.6°F20.9°C 14.5°F-9.7°C 12% 8.8 mph SE14.2 kmh SE 52.2 mph84.0 kmh 30.08 in1018.6 mb 0.00 in0.0 mm 0.00 in/hr0.0 mm/hr 0.00 in0.0 mm
10:46 AM 71.1°F21.7°C 13.6°F-10.2°C 11% 4.7 mph S7.6 kmh S 47.8 mph76.9 kmh 30.08 in1018.6 mb 0.00 in0.0 mm 0.00 in/hr0.0 mm/hr 0.00 in0.0 mm
10:56 AM 70.8°F21.6°C 15.4°F-9.2°C 12% 7.4 mph SE11.9 kmh SE 59.4 mph95.6 kmh 30.08 in1018.6 mb 0.00 in0.0 mm 0.00 in/hr0.0 mm/hr 0.00 in0.0 mm
11:07 AM 72.0°F22.2°C 12.1°F-11.1°C 10% 6.7 mph S10.8 kmh S 56.2 mph90.4 kmh 30.07 in1018.3 mb 0.00 in0.0 mm 0.00 in/hr0.0 mm/hr 0.00 in0.0 mm
11:17 AM 73.0°F22.8°C 15.1°F-9.4°C 11% 4.9 mph SSE7.9 kmh SSE 33.4 mph53.8 kmh 30.06 in1017.9 mb 0.00 in0.0 mm 0.00 in/hr0.0 mm/hr 0.00 in0.0 mm
11:28 AM 71.6°F22.0°C 11.8°F-11.2°C 10% 10.6 mph SE17.1 kmh SE 46.8 mph75.3 kmh 30.06 in1017.9 mb 0.00 in0.0 mm 0.00 in/hr0.0 mm/hr 0.00 in0.0 mm
11:38 AM 73.1°F22.8°C 12.9°F-10.6°C 10% 6.9 mph SSE11.1 kmh SSE 50.4 mph81.1 kmh 30.06 in1017.9 mb 0.00 in0.0 mm 0.00 in/hr0.0 mm/hr 0.00 in0.0 mm
11:49 AM 72.2°F22.3°C 14.5°F-9.7°C 11% 6.6 mph SSE10.6 kmh SSE 53.2 mph85.6 kmh 30.06 in1017.9 mb 0.00 in0.0 mm 0.00 in/hr0.0 mm/hr 0.00 in0.0 mm
11:59 AM 73.0°F22.8°C 12.9°F-10.6°C 10% 10.2 mph SE16.4 kmh SE 30.4 mph48.9 kmh 30.06 in1017.9 mb 0.00 in0.0 mm 0.00 in/hr0.0 mm/hr 0.00 in0.0 mm
12:10 PM 73.0°F22.8°C 12.9°F-10.6°C 10% 10.1 mph SE16.3 kmh SE 45.0 mph72.4 kmh 30.06 in1017.9 mb 0.00 in0.0 mm 0.00 in/hr0.0 mm/hr 0.00 in0.0 mm
12:20 PM 74.1°F23.4°C 13.7°F-10.2°C 10% 9.1 mph SE14.6 kmh SE 51.4 mph82.7 kmh 30.06 in1017.9 mb 0.00 in0.0 mm 0.00 in/hr0.0 mm/hr 0.00 in0.0 mm
12:30 PM 74.0°F23.3°C 13.7°F-10.2°C 10% 10.0 mph SSE16.1 kmh SSE 56.8 mph91.4 kmh 30.05 in1017.6 mb 0.00 in0.0 mm 0.00 in/hr0.0 mm/hr 0.00 in0.0 mm
12:41 PM 74.9°F23.8°C 11.9°F-11.2°C 9% 6.0 mph SE9.7 kmh SE 48.6 mph78.2 kmh 30.05 in1017.6 mb 0.00 in0.0 mm 0.00 in/hr0.0 mm/hr 0.00 in0.0 mm
12:51 PM 74.0°F23.3°C 11.2°F-11.6°C 9% 9.9 mph SE15.9 kmh SE 49.6 mph79.8 kmh 30.05 in1017.6 mb 0.00 in0.0 mm 0.00 in/hr0.0 mm/hr 0.00 in0.0 mm
01:02 PM 75.3°F24.1°C 12.2°F-11.0°C 9% 8.7 mph SSE14.0 kmh SSE 31.6 mph50.9 kmh 30.04 in1017.3 mb 0.00 in0.0 mm 0.00 in/hr0.0 mm/hr 0.00 in0.0 mm
01:12 PM 75.8°F24.3°C 12.6°F-10.8°C 9% 3.7 mph SSE6.0 kmh SSE 8.8 mph14.2 kmh 30.04 in1017.3 mb 0.00 in0.0 mm 0.00 in/hr0.0 mm/hr 0.00 in0.0 mm
01:23 PM 76.4°F24.7°C 13.1°F-10.5°C 9% 7.7 mph SE12.4 kmh SE 55.4 mph89.2 kmh 30.04 in1017.3 mb 0.00 in0.0 mm 0.00 in/hr0.0 mm/hr 0.00 in0.0 mm
01:33 PM 75.3°F24.1°C 12.2°F-11.0°C 9% 7.2 mph S11.6 kmh S 55.0 mph88.5 kmh 30.03 in1016.9 mb 0.00 in0.0 mm 0.00 in/hr0.0 mm/hr 0.00 in0.0 mm
01:44 PM 76.3°F24.6°C 12.9°F-10.6°C 9% 8.3 mph SE13.4 kmh SE 62.6 mph100.7 kmh 30.03 in1016.9 mb 0.00 in0.0 mm 0.00 in/hr0.0 mm/hr 0.00 in0.0 mm
01:54 PM 78.4°F25.8°C 14.5°F-9.7°C 9% 1.0 mph SSW1.6 kmh SSW 51.0 mph82.1 kmh 30.03 in1016.9 mb 0.00 in0.0 mm 0.00 in/hr0.0 mm/hr 0.00 in0.0 mm
02:05 PM 75.1°F23.9°C 14.5°F-9.7°C 10% 10.1 mph SE16.3 kmh SE 36.2 mph58.3 kmh 30.02 in1016.6 mb 0.00 in0.0 mm 0.00 in/hr0.0 mm/hr 0.00 in0.0 mm
02:15 PM 75.8°F24.3°C 12.6°F-10.8°C 9% 9.1 mph SE14.6 kmh SE 46.8 mph75.3 kmh 30.01 in1016.3 mb 0.00 in0.0 mm 0.00 in/hr0.0 mm/hr 0.00 in0.0 mm
02:26 PM 75.0°F23.9°C 14.4°F-9.8°C 10% 5.2 mph SSE8.4 kmh SSE 35.6 mph57.3 kmh 30.01 in1016.3 mb 0.00 in0.0 mm 0.00 in/hr0.0 mm/hr 0.00 in0.0 mm
02:36 PM 74.2°F23.4°C 16.0°F-8.9°C 11% 8.7 mph SE14.0 kmh SE 61.6 mph99.1 kmh 30.01 in1016.3 mb 0.00 in0.0 mm 0.00 in/hr0.0 mm/hr 0.00 in0.0 mm
02:47 PM 76.2°F24.6°C 12.9°F-10.6°C 9% 6.8 mph SSE10.9 kmh SSE 54.4 mph87.5 kmh 30.01 in1016.3 mb 0.00 in0.0 mm 0.00 in/hr0.0 mm/hr 0.00 in0.0 mm
02:57 PM 78.1°F25.6°C 14.3°F-9.8°C 9% 4.1 mph SE6.6 kmh SE 50.4 mph81.1 kmh 30.01 in1016.3 mb 0.00 in0.0 mm 0.00 in/hr0.0 mm/hr 0.00 in0.0 mm
03:08 PM 77.7°F25.4°C 16.5°F-8.6°C 10% 6.7 mph SSE10.8 kmh SSE 40.2 mph64.7 kmh 30.01 in1016.3 mb 0.00 in0.0 mm 0.00 in/hr0.0 mm/hr 0.00 in0.0 mm
03:18 PM 78.5°F25.8°C 17.1°F-8.3°C 10% 5.9 mph SSW9.5 kmh SSW 55.4 mph89.2 kmh 30.01 in1016.3 mb 0.00 in0.0 mm 0.00 in/hr0.0 mm/hr 0.00 in0.0 mm
03:29 PM 80.9°F27.2°C 16.4°F-8.7°C 9% 1.9 mph SE3.1 kmh SE 55.0 mph88.5 kmh 30.00 in1015.9 mb 0.00 in0.0 mm 0.00 in/hr0.0 mm/hr 0.00 in0.0 mm
03:39 PM 79.2°F26.2°C 15.2°F-9.3°C 9% 5.7 mph WSW9.2 kmh WSW 8.0 mph12.9 kmh 30.00 in1015.9 mb 0.00 in0.0 mm 0.00 in/hr0.0 mm/hr 0.00 in0.0 mm
03:50 PM 80.7°F27.1°C 16.2°F-8.8°C 9% 4.6 mph W7.4 kmh W 8.8 mph14.2 kmh 30.00 in1015.9 mb 0.00 in0.0 mm 0.00 in/hr0.0 mm/hr 0.00 in0.0 mm
04:00 PM 79.9°F26.6°C 15.7°F-9.1°C 9% 1.2 mph SW1.9 kmh SW 35.2 mph56.6 kmh 29.99 in1015.6 mb 0.00 in0.0 mm 0.00 in/hr0.0 mm/hr 0.00 in0.0 mm
04:11 PM 78.6°F25.9°C 14.7°F-9.6°C 9% 6.6 mph SE10.6 kmh SE 41.0 mph66.0 kmh 29.99 in1015.6 mb 0.00 in0.0 mm 0.00 in/hr0.0 mm/hr 0.00 in0.0 mm
04:21 PM 78.8°F26.0°C 12.1°F-11.1°C 8% 4.9 mph S7.9 kmh S 6.6 mph10.6 kmh 30.00 in1015.9 mb 0.00 in0.0 mm 0.00 in/hr0.0 mm/hr 0.00 in0.0 mm
04:32 PM 78.7°F25.9°C 14.8°F-9.6°C 9% 3.5 mph SSE5.6 kmh SSE 7.0 mph11.3 kmh 29.99 in1015.6 mb 0.00 in0.0 mm 0.00 in/hr0.0 mm/hr 0.00 in0.0 mm
04:42 PM 77.3°F25.2°C 16.2°F-8.8°C 10% 3.8 mph SSE6.1 kmh SSE 44.2 mph71.1 kmh 29.99 in1015.6 mb 0.00 in0.0 mm 0.00 in/hr0.0 mm/hr 0.00 in0.0 mm
04:53 PM 77.2°F25.1°C 16.1°F-8.8°C 10% 4.6 mph SSE7.4 kmh SSE 6.2 mph10.0 kmh 29.99 in1015.6 mb 0.00 in0.0 mm 0.00 in/hr0.0 mm/hr 0.00 in0.0 mm
05:03 PM 76.7°F24.8°C 15.7°F-9.1°C 10% 5.2 mph SSW8.4 kmh SSW 48.6 mph78.2 kmh 30.00 in1015.9 mb 0.00 in0.0 mm 0.00 in/hr0.0 mm/hr 0.00 in0.0 mm
05:14 PM 76.6°F24.8°C 15.7°F-9.1°C 10% 5.1 mph SE8.2 kmh SE 48.6 mph78.2 kmh 29.99 in1015.6 mb 0.00 in0.0 mm 0.00 in/hr0.0 mm/hr 0.00 in0.0 mm
05:24 PM 75.7°F24.3°C 14.9°F-9.5°C 10% 1.9 mph SE3.1 kmh SE 7.0 mph11.3 kmh 30.00 in1015.9 mb 0.00 in0.0 mm 0.00 in/hr0.0 mm/hr 0.00 in0.0 mm
05:35 PM 75.4°F24.1°C 14.7°F-9.6°C 10% 4.6 mph SSW7.4 kmh SSW 6.2 mph10.0 kmh 30.00 in1015.9 mb 0.00 in0.0 mm 0.00 in/hr0.0 mm/hr 0.00 in0.0 mm
05:45 PM 75.1°F23.9°C 14.5°F-9.7°C 10% 1.2 mph SSW1.9 kmh SSW 1.6 mph2.6 kmh 30.00 in1015.9 mb 0.00 in0.0 mm 0.00 in/hr0.0 mm/hr 0.00 in0.0 mm
05:55 PM 75.8°F24.3°C 15.0°F-9.4°C 10% 1.9 mph S3.1 kmh S 5.8 mph9.3 kmh 30.00 in1015.9 mb 0.00 in0.0 mm 0.00 in/hr0.0 mm/hr 0.00 in0.0 mm
06:06 PM 75.1°F23.9°C 14.5°F-9.7°C 10% Calm Calm 5.8 mph9.3 kmh 29.99 in1015.6 mb 0.00 in0.0 mm 0.00 in/hr0.0 mm/hr 0.00 in0.0 mm
06:16 PM 74.4°F23.6°C 16.2°F-8.8°C 11% 1.2 mph S1.9 kmh S 1.6 mph2.6 kmh 29.99 in1015.6 mb 0.00 in0.0 mm 0.00 in/hr0.0 mm/hr 0.00 in0.0 mm
06:27 PM 73.5°F23.1°C 15.5°F-9.2°C 11% 2.3 mph SW3.7 kmh SW 3.0 mph4.8 kmh 29.99 in1015.6 mb 0.00 in0.0 mm 0.00 in/hr0.0 mm/hr 0.00 in0.0 mm
06:37 PM 72.9°F22.7°C 15.1°F-9.4°C 11% 3.0 mph SSW4.8 kmh SSW 45.0 mph72.4 kmh 30.00 in1015.9 mb 0.00 in0.0 mm 0.00 in/hr0.0 mm/hr 0.00 in0.0 mm
06:48 PM 71.5°F21.9°C 16.0°F-8.9°C 12% 1.9 mph SW3.1 kmh SW 4.0 mph6.4 kmh 30.00 in1015.9 mb 0.00 in0.0 mm 0.00 in/hr0.0 mm/hr 0.00 in0.0 mm
06:58 PM 70.6°F21.4°C 20.6°F-6.3°C 15% 1.7 mph W2.7 kmh W 2.2 mph3.5 kmh 30.00 in1015.9 mb 0.00 in0.0 mm 0.00 in/hr0.0 mm/hr 0.00 in0.0 mm
07:09 PM 69.0°F20.6°C 22.3°F-5.4°C 17% Calm Calm 3.0 mph4.8 kmh 30.01 in1016.3 mb 0.00 in0.0 mm 0.00 in/hr0.0 mm/hr 0.00 in0.0 mm
07:19 PM 67.8°F19.9°C 22.7°F-5.2°C 18% 0.9 mph WSW1.4 kmh WSW 4.4 mph7.1 kmh 30.01 in1016.3 mb 0.00 in0.0 mm 0.00 in/hr0.0 mm/hr 0.00 in0.0 mm
07:30 PM 67.2°F19.6°C 22.2°F-5.4°C 18% 0.6 mph W1.0 kmh W 4.0 mph6.4 kmh 30.01 in1016.3 mb 0.00 in0.0 mm 0.00 in/hr0.0 mm/hr 0.00 in0.0 mm
07:40 PM 66.7°F19.3°C 23.1°F-4.9°C 19% Calm Calm 1.6 mph2.6 kmh 30.01 in1016.3 mb 0.00 in0.0 mm 0.00 in/hr0.0 mm/hr 0.00 in0.0 mm
07:51 PM 66.0°F18.9°C 22.5°F-5.3°C 19% 1.2 mph W1.9 kmh W 1.6 mph2.6 kmh 30.02 in1016.6 mb 0.00 in0.0 mm 0.00 in/hr0.0 mm/hr 0.00 in0.0 mm
08:01 PM 65.4°F18.6°C 23.2°F-4.9°C 20% 3.6 mph WNW5.8 kmh WNW 4.8 mph7.7 kmh 30.02 in1016.6 mb 0.00 in0.0 mm 0.00 in/hr0.0 mm/hr 0.00 in0.0 mm
08:12 PM 65.4°F18.6°C 23.2°F-4.9°C 20% 1.7 mph W2.7 kmh W 2.2 mph3.5 kmh 30.02 in1016.6 mb 0.00 in0.0 mm 0.00 in/hr0.0 mm/hr 0.00 in0.0 mm
08:22 PM 65.4°F18.6°C 22.0°F-5.6°C 19% 1.9 mph W3.1 kmh W 2.6 mph4.2 kmh 30.02 in1016.6 mb 0.00 in0.0 mm 0.00 in/hr0.0 mm/hr 0.00 in0.0 mm
08:33 PM 65.1°F18.4°C 23.0°F-5.0°C 20% Calm Calm 5.2 mph8.4 kmh 30.02 in1016.6 mb 0.00 in0.0 mm 0.00 in/hr0.0 mm/hr 0.00 in0.0 mm
08:43 PM 64.5°F18.1°C 22.5°F-5.3°C 20% 1.2 mph WNW1.9 kmh WNW 4.4 mph7.1 kmh 30.03 in1016.9 mb 0.00 in0.0 mm 0.00 in/hr0.0 mm/hr 0.00 in0.0 mm
08:54 PM 63.1°F17.3°C 23.5°F-4.7°C 22% 0.9 mph NW1.4 kmh NW 2.2 mph3.5 kmh 30.03 in1016.9 mb 0.00 in0.0 mm 0.00 in/hr0.0 mm/hr 0.00 in0.0 mm
09:04 PM 62.7°F17.1°C 22.1°F-5.5°C 21% Calm Calm 1.2 mph1.9 kmh 30.03 in1016.9 mb 0.00 in0.0 mm 0.00 in/hr0.0 mm/hr 0.00 in0.0 mm
09:15 PM 62.2°F16.8°C 21.7°F-5.7°C 21% Calm Calm -- 30.03 in1016.9 mb 0.00 in0.0 mm 0.00 in/hr0.0 mm/hr 0.00 in0.0 mm
09:25 PM 62.0°F16.7°C 21.5°F-5.8°C 21% 4.3 mph SE6.9 kmh SE 5.8 mph9.3 kmh 30.04 in1017.3 mb 0.00 in0.0 mm 0.00 in/hr0.0 mm/hr 0.00 in0.0 mm
09:36 PM 60.9°F16.1°C 22.7°F-5.2°C 23% Calm Calm -- 30.04 in1017.3 mb 0.00 in0.0 mm 0.00 in/hr0.0 mm/hr 0.00 in0.0 mm
09:47 PM 60.9°F16.1°C 21.7°F-5.7°C 22% Calm Calm -- 30.04 in1017.3 mb 0.00 in0.0 mm 0.00 in/hr0.0 mm/hr 0.00 in0.0 mm
09:57 PM 58.0°F14.4°C 22.2°F-5.4°C 25% Calm Calm -- 30.04 in1017.3 mb 0.00 in0.0 mm 0.00 in/hr0.0 mm/hr 0.00 in0.0 mm
10:08 PM 56.8°F13.8°C 22.1°F-5.5°C 26% Calm Calm -- 30.04 in1017.3 mb 0.00 in0.0 mm 0.00 in/hr0.0 mm/hr 0.00 in0.0 mm
10:18 PM 56.2°F13.4°C 21.6°F-5.8°C 26% Calm Calm -- 30.04 in1017.3 mb 0.00 in0.0 mm 0.00 in/hr0.0 mm/hr 0.00 in0.0 mm
10:29 PM 55.5°F13.1°C 21.9°F-5.6°C 27% Calm Calm -- 30.04 in1017.3 mb 0.00 in0.0 mm 0.00 in/hr0.0 mm/hr 0.00 in0.0 mm
10:39 PM 55.7°F13.2°C 22.0°F-5.6°C 27% Calm Calm -- 30.03 in1016.9 mb 0.00 in0.0 mm 0.00 in/hr0.0 mm/hr 0.00 in0.0 mm
10:50 PM 56.2°F13.4°C 22.5°F-5.3°C 27% Calm Calm -- 30.03 in1016.9 mb 0.00 in0.0 mm 0.00 in/hr0.0 mm/hr 0.00 in0.0 mm
11:00 PM 56.2°F13.4°C 22.5°F-5.3°C 27% Calm Calm -- 30.03 in1016.9 mb 0.00 in0.0 mm 0.00 in/hr0.0 mm/hr 0.00 in0.0 mm
11:11 PM 56.6°F13.7°C 22.8°F-5.1°C 27% Calm Calm -- 30.03 in1016.9 mb 0.00 in0.0 mm 0.00 in/hr0.0 mm/hr 0.00 in0.0 mm
11:21 PM 56.2°F13.4°C 23.3°F-4.8°C 28% Calm Calm 0.4 mph0.6 kmh 30.03 in1016.9 mb 0.00 in0.0 mm 0.00 in/hr0.0 mm/hr 0.00 in0.0 mm
11:32 PM 56.4°F13.6°C 22.6°F-5.2°C 27% Calm Calm 2.2 mph3.5 kmh 30.03 in1016.9 mb 0.00 in0.0 mm 0.00 in/hr0.0 mm/hr 0.00 in0.0 mm
11:42 PM 56.4°F13.6°C 22.6°F-5.2°C 27% Calm Calm -- 30.03 in1016.9 mb 0.00 in0.0 mm 0.00 in/hr0.0 mm/hr 0.00 in0.0 mm
11:53 PM 56.2°F13.4°C 22.5°F-5.3°C 27% Calm Calm -- 30.03 in1016.9 mb 0.00 in0.0 mm 0.00 in/hr0.0 mm/hr 0.00 in0.0 mm